Time;durP1;ratioP1;P1;durP2;ratioP2;P2;SDS_P1;SDS_P2;PMS_P1;PMS_P2;Temp;Humidity;BMP_temperature;BMP_pressure;BME280_temperature;BME280_humidity;BME280_pressure;Samples;Min_cycle;Max_cycle;Signal;HPM_P1;HPM_P2
2021/12/06 00:01:31;;;;;;;1.58;1.40;;;19.70;41.50;;;23.39;27.59;101053.28;4881304;29;20049;-75
2021/12/06 00:04:12;;;;;;;1.40;1.30;;;19.70;41.40;;;23.39;27.86;101061.28;4866182;29;20052;-75
2021/12/06 00:06:42;;;;;;;1.40;1.27;;;19.70;41.50;;;23.34;27.84;101050.06;4897745;29;20048;-75
2021/12/06 00:09:16;;;;;;;1.38;1.27;;;19.70;41.40;;;23.36;27.93;101059.69;4880975;29;20044;-75
2021/12/06 00:11:42;;;;;;;1.55;1.33;;;19.70;41.40;;;23.39;27.75;101062.16;4866003;29;20061;-75
2021/12/06 00:14:09;;;;;;;1.55;1.30;;;19.70;41.40;;;23.37;27.90;101057.88;4880908;29;20106;-75
2021/12/06 00:16:35;;;;;;;1.33;1.23;;;19.70;41.40;;;23.38;27.65;101056.94;4865551;29;20556;-75
2021/12/06 00:19:03;;;;;;;1.38;1.27;;;19.70;41.40;;;23.34;27.92;101053.63;4880993;29;20053;-75
2021/12/06 00:21:30;;;;;;;1.50;1.40;;;19.70;41.40;;;23.38;27.80;101063.09;4880910;29;20052;-75
2021/12/06 00:23:56;;;;;;;1.60;1.40;;;19.70;41.40;;;23.38;27.88;101067.59;4880832;29;20064;-75
2021/12/06 00:26:21;;;;;;;2.03;1.60;;;19.70;41.40;;;23.35;27.88;101065.13;4881031;29;20104;-75
2021/12/06 00:28:55;;;;;;;1.40;1.30;;;19.70;41.50;;;23.36;27.70;101062.38;4880900;29;20075;-75
2021/12/06 00:31:21;;;;;;;1.35;1.25;;;19.70;41.40;;;23.37;27.71;101069.41;4881875;29;20083;-76
2021/12/06 00:33:53;;;;;;;1.75;1.45;;;19.70;41.40;;;23.37;27.80;101063.22;4865204;29;20160;-75
2021/12/06 00:36:27;;;;;;;1.88;1.65;;;19.80;41.40;;;23.39;27.90;101069.28;4897726;29;20048;-75
2021/12/06 00:38:53;;;;;;;1.50;1.40;;;19.70;41.40;;;23.38;27.68;101062.25;4882073;29;20436;-75
2021/12/06 00:41:19;;;;;;;1.48;1.27;;;19.80;41.40;;;23.37;27.91;101058.75;4880723;29;20044;-75
2021/12/06 00:43:45;;;;;;;1.48;1.38;;;19.80;41.40;;;23.37;27.79;101063.22;4865079;29;20063;-75
2021/12/06 00:46:11;;;;;;;1.38;1.27;;;19.70;41.40;;;23.38;27.80;101064.94;4880633;29;20057;-75
2021/12/06 00:48:37;;;;;;;1.73;1.60;;;19.70;41.40;;;23.39;27.83;101067.50;4880588;29;20053;-75
2021/12/06 00:51:04;;;;;;;1.75;1.50;;;19.70;41.40;;;23.39;28.00;101070.16;4880754;29;20071;-75
2021/12/06 00:53:30;;;;;;;1.70;1.60;;;19.80;42.00;;;23.40;27.83;101079.84;4880625;29;20092;-75
2021/12/06 00:55:56;;;;;;;1.80;1.60;;;19.70;41.40;;;23.40;27.89;101090.53;4880548;29;20052;-75
2021/12/06 00:58:22;;;;;;;1.85;1.45;;;19.70;41.40;;;23.41;27.86;101094.06;4880609;29;20063;-75
2021/12/06 01:00:52;;;;;;;1.40;1.30;;;19.80;41.50;;;23.38;27.68;101086.28;4880745;29;20052;-74
2021/12/06 01:03:23;;;;;;;1.67;1.25;;;19.70;41.40;;;23.40;27.93;101089.69;4879909;29;20063;-75
2021/12/06 01:05:49;;;;;;;1.20;1.10;;;19.70;41.40;;;23.40;27.86;101095.03;4880462;29;20060;-75
2021/12/06 01:08:16;;;;;;;1.23;1.10;;;19.70;41.40;;;23.37;27.76;101093.44;4864986;29;20200;-75
2021/12/06 01:10:43;;;;;;;1.90;1.70;;;19.80;41.50;;;23.38;27.58;101095.13;4880377;29;20490;-75
2021/12/06 01:13:09;;;;;;;1.73;1.63;;;19.80;41.50;;;23.37;27.78;101096.09;4864684;29;20408;-76
2021/12/06 01:15:39;;;;;;;1.75;1.65;;;19.80;41.50;;;23.40;27.77;101103.03;4880201;29;20446;-75
2021/12/06 01:18:09;;;;;;;1.50;1.40;;;19.80;41.50;;;23.36;27.93;101099.72;4897097;29;20048;-75
2021/12/06 01:20:43;;;;;;;1.35;1.25;;;19.80;41.40;;;23.36;27.80;101097.06;4880386;29;20069;-75
2021/12/06 01:23:15;;;;;;;1.58;1.45;;;19.70;41.40;;;23.41;27.74;101108.25;4864833;29;20112;-75
2021/12/06 01:31:04;;;;;;;1.50;1.30;;;19.80;41.50;;;23.41;27.77;101121.59;4864685;29;20405;-76
2021/12/06 01:34:03;;;;;;;1.65;1.52;;;19.70;41.40;;;23.40;27.89;101132.38;4866462;29;20067;-76
2021/12/06 01:39:19;;;;;;;1.50;1.40;;;19.80;41.40;;;23.39;27.80;101139.53;4879663;29;20060;-75
2021/12/06 01:42:03;;;;;;;1.98;1.42;;;19.80;42.00;;;23.39;27.85;101136.00;4865752;29;20394;-75
2021/12/06 01:44:41;;;;;;;2.15;1.80;;;19.80;41.40;;;23.40;27.80;101141.22;4864887;29;20060;-75
2021/12/06 01:47:21;;;;;;;1.75;1.48;;;19.80;41.40;;;23.38;27.94;101135.16;4880108;29;20485;-75
2021/12/06 01:49:55;;;;;;;1.52;1.33;;;19.70;41.40;;;23.36;27.78;101131.75;4875733;29;20079;-76
2021/12/06 01:52:41;;;;;;;1.70;1.45;;;19.80;41.40;;;23.39;27.94;101128.00;4880245;29;20657;-75
2021/12/06 01:55:13;;;;;;;1.42;1.20;;;19.80;41.40;;;23.40;27.59;101132.38;4879842;29;20067;-75
2021/12/06 01:57:39;;;;;;;1.45;1.35;;;19.70;41.40;;;23.40;27.92;101135.91;4899165;29;20053;-76
2021/12/06 02:00:20;;;;;;;1.30;1.20;;;19.80;41.40;;;23.40;27.64;101143.91;4883042;29;20445;-76
2021/12/06 02:02:52;;;;;;;1.40;1.30;;;19.80;41.40;;;23.40;27.80;101140.38;4868208;29;20045;-75
2021/12/06 02:05:24;;;;;;;1.55;1.30;;;19.80;41.50;;;23.40;27.87;101138.56;4883997;29;20053;-75
2021/12/06 02:07:52;;;;;;;1.70;1.60;;;19.80;41.40;;;23.39;27.68;101141.34;4882785;29;20045;-75
2021/12/06 02:10:21;;;;;;;1.60;1.45;;;19.80;41.40;;;23.40;27.72;101141.22;4882825;29;20485;-75
2021/12/06 02:12:50;;;;;;;1.75;1.65;;;19.80;41.40;;;23.39;27.83;101136.00;4867289;29;20064;-75
2021/12/06 02:15:41;;;;;;;1.73;1.40;;;19.80;41.50;;;23.40;27.98;101145.72;4883092;29;20044;-75
2021/12/06 02:19:03;;;;;;;1.30;1.20;;;19.80;41.50;;;23.37;27.66;101143.25;4871186;29;20049;-75
2021/12/06 02:21:26;;;;;;;1.80;1.60;;;19.80;41.40;;;23.41;27.83;101140.28;4871395;29;20064;-75
2021/12/06 02:23:56;;;;;;;2.70;1.50;;;19.80;41.40;;;23.40;27.67;101138.56;4883820;29;20056;-75
2021/12/06 02:26:23;;;;;;;1.85;1.50;;;19.80;41.40;;;23.35;27.84;101121.16;4882604;29;20052;-75
2021/12/06 02:28:50;;;;;;;2.10;1.50;;;19.80;41.40;;;23.39;27.81;101128.88;4866977;29;20048;-75
2021/12/06 02:31:22;;;;;;;1.75;1.50;;;19.70;41.40;;;23.39;27.85;101128.88;4867573;29;20040;-75
2021/12/06 02:33:49;;;;;;;1.45;1.35;;;19.70;41.40;;;23.40;27.89;101135.91;4867078;29;20401;-75
2021/12/06 02:36:18;;;;;;;1.40;1.30;;;19.80;41.40;;;23.40;27.88;101132.38;4867174;29;20087;-75
2021/12/06 02:38:44;;;;;;;1.58;1.40;;;19.80;41.40;;;23.34;27.97;101130.13;4882091;29;20065;-75
2021/12/06 02:41:11;;;;;;;1.60;1.30;;;19.70;41.40;;;23.37;27.91;101137.91;4866894;29;20054;-75
2021/12/06 02:43:37;;;;;;;1.70;1.55;;;19.80;41.40;;;23.37;27.79;101140.59;4882465;29;20135;-75
2021/12/06 02:46:05;;;;;;;1.90;1.58;;;19.70;41.40;;;23.39;27.75;101152.88;4867344;29;20059;-75
2021/12/06 02:48:31;;;;;;;1.75;1.65;;;19.80;41.40;;;23.40;27.71;101146.56;4897401;29;20413;-75
2021/12/06 02:51:00;;;;;;;1.60;1.40;;;19.80;41.40;;;23.39;28.05;101155.56;4867354;29;20071;-75
2021/12/06 02:53:30;;;;;;;1.67;1.45;;;19.80;41.40;;;23.40;27.77;101151.06;4882343;29;20048;-75
2021/12/06 02:55:59;;;;;;;1.67;1.40;;;19.80;41.40;;;23.42;27.71;101151.81;4880618;29;20057;-76
2021/12/06 03:01:06;;;;;;;1.40;1.30;;;19.80;41.40;;;23.41;27.75;101150.13;4882533;29;20052;-75
2021/12/06 03:03:32;;;;;;;1.35;1.25;;;19.80;41.40;;;23.42;28.14;101144.69;4899017;29;20052;-75
2021/12/06 03:05:58;;;;;;;1.50;1.40;;;19.80;41.40;;;23.44;27.80;101149.91;4882173;29;20458;-75
2021/12/06 03:08:46;;;;;;;2.03;1.60;;;19.80;41.40;;;23.43;27.92;101159.72;4880776;29;20516;-76
2021/12/06 03:11:17;;;;;;;2.00;1.40;;;19.80;41.30;;;23.41;27.78;101158.97;4882297;29;20080;-75
2021/12/06 03:13:44;;;;;;;1.30;1.20;;;19.80;41.40;;;23.44;28.01;101161.44;4866473;29;20056;-75
2021/12/06 03:16:11;;;;;;;1.60;1.50;;;19.80;41.30;;;23.47;27.84;101165.69;4882222;29;20057;-75
2021/12/06 03:18:37;;;;;;;1.80;1.60;;;19.80;41.30;;;23.44;27.85;101163.25;4866249;29;20135;-75
2021/12/06 03:21:04;;;;;;;1.92;1.75;;;19.80;41.30;;;23.46;27.93;101172.84;4866462;29;20112;-75
2021/12/06 03:23:30;;;;;;;1.75;1.48;;;19.80;41.30;;;23.45;27.80;101165.78;4866566;29;20140;-75
2021/12/06 03:25:56;;;;;;;1.63;1.45;;;19.80;41.30;;;23.44;27.77;101164.09;4866766;29;20067;-75
2021/12/06 03:28:23;;;;;;;1.60;1.50;;;19.80;41.30;;;23.48;27.94;101167.41;4882078;29;20052;-75
2021/12/06 03:30:48;;;;;;;2.17;1.58;;;19.80;41.30;;;23.48;27.83;101168.25;4866535;29;20056;-75
2021/12/06 03:33:14;;;;;;;1.40;1.30;;;19.90;41.30;;;23.47;27.72;101169.22;4866070;29;20520;-75
2021/12/06 03:35:41;;;;;;;1.42;1.33;;;19.90;41.30;;;23.49;27.61;101169.97;4881451;29;20056;-75
2021/12/06 03:38:07;;;;;;;1.58;1.48;;;19.90;41.30;;;23.52;27.89;101170.72;4881688;29;20143;-75
2021/12/06 03:40:33;;;;;;;1.73;1.63;;;19.90;41.30;;;23.52;27.90;101182.25;4881430;29;20055;-75
2021/12/06 03:42:59;;;;;;;1.67;1.50;;;19.90;41.30;;;23.50;27.98;101184.16;4865997;29;20148;-75
2021/12/06 03:45:25;;;;;;;1.83;1.63;;;19.90;41.30;;;23.51;27.73;101177.88;4881351;29;20056;-75
2021/12/06 03:47:53;;;;;;;2.30;1.90;;;19.90;41.20;;;23.51;27.73;101180.56;4881457;29;20109;-75
2021/12/06 03:50:21;;;;;;;1.75;1.40;;;19.90;41.20;;;23.53;27.71;101194.63;4865876;29;20063;-75
2021/12/06 03:52:51;;;;;;;1.35;1.20;;;19.90;41.20;;;23.56;27.67;101204.28;4881689;29;20056;-75
2021/12/06 03:55:18;;;;;;;1.55;1.45;;;20.00;41.20;;;23.56;27.60;101198.94;4881352;29;20482;-75
2021/12/06 03:57:43;;;;;;;1.60;1.50;;;19.90;41.10;;;23.57;27.70;101195.28;4879499;29;20048;-75
2021/12/06 04:00:13;;;;;;;1.70;1.60;;;20.00;41.20;;;23.57;27.60;101193.50;4866209;29;20055;-75
2021/12/06 04:02:42;;;;;;;2.05;1.58;;;20.00;41.20;;;23.54;27.78;101188.34;4880855;29;20136;-75
2021/12/06 04:05:09;;;;;;;1.50;1.40;;;20.00;41.20;;;23.59;27.65;101201.38;4879254;29;20053;-75
2021/12/06 04:07:35;;;;;;;1.45;1.35;;;20.00;41.10;;;23.59;27.64;101204.91;4880874;29;20091;-75
2021/12/06 04:10:05;;;;;;;2.00;1.80;;;20.00;41.20;;;23.58;27.78;101195.19;4896265;29;20084;-75
2021/12/06 04:12:31;;;;;;;1.50;1.40;;;20.00;41.10;;;23.60;27.59;101197.75;4865334;29;20048;-75
2021/12/06 04:14:58;;;;;;;1.88;1.70;;;20.00;41.10;;;23.58;27.65;101197.00;4880820;29;20405;-75
2021/12/06 04:17:24;;;;;;;1.70;1.60;;;20.00;41.10;;;23.62;27.61;101202.03;4896144;29;20080;-75
2021/12/06 04:19:50;;;;;;;1.52;1.30;;;20.00;41.00;;;23.63;27.73;101201.06;4880174;29;20401;-75
2021/12/06 04:22:18;;;;;;;1.55;1.45;;;20.10;41.10;;;23.63;27.67;101201.06;4881285;29;20437;-75
2021/12/06 04:24:45;;;;;;;1.40;1.30;;;20.00;41.10;;;23.63;27.52;101210.91;4881007;29;20147;-75
2021/12/06 04:27:14;;;;;;;1.60;1.50;;;20.10;41.00;;;23.63;27.46;101214.41;4865533;29;20059;-75
2021/12/06 04:29:44;;;;;;;1.60;1.50;;;20.10;41.10;;;23.65;27.70;101223.16;4880536;29;20204;-75
2021/12/06 04:32:12;;;;;;;1.83;1.63;;;20.00;41.00;;;23.65;27.53;101215.16;4865874;29;20041;-75
2021/12/06 04:34:39;;;;;;;1.50;1.40;;;20.10;41.00;;;23.67;27.57;101223.94;4850107;29;20063;-75
2021/12/06 04:37:06;;;;;;;2.85;1.70;;;20.00;41.00;;;23.67;27.59;101215.94;4880859;29;20144;-76
2021/12/06 04:39:34;;;;;;;1.67;1.58;;;20.10;41.00;;;23.62;27.52;101204.72;4865149;29;20056;-75
2021/12/06 04:42:01;;;;;;;1.50;1.40;;;20.00;41.00;;;23.68;27.63;101222.97;4865221;29;20056;-76
2021/12/06 04:44:27;;;;;;;1.60;1.50;;;20.00;41.00;;;23.68;27.67;101214.94;4880817;29;20040;-75
2021/12/06 04:46:53;;;;;;;1.40;1.30;;;20.00;41.00;;;23.65;27.49;101211.63;4880639;29;20052;-75
2021/12/06 04:49:20;;;;;;;1.52;1.33;;;20.10;41.00;;;23.70;27.57;101230.03;4865379;29;20477;-76
2021/12/06 04:51:52;;;;;;;2.00;1.80;;;20.10;41.00;;;23.66;27.61;101234.72;4880327;29;20056;-75
2021/12/06 04:54:23;;;;;;;1.75;1.50;;;20.00;41.00;;;23.66;27.68;101240.06;4880856;29;20068;-76
2021/12/06 04:56:55;;;;;;;1.15;1.02;;;20.10;41.00;;;23.70;27.68;101243.38;4865525;29;20044;-75
2021/12/06 04:59:34;;;;;;;1.90;1.80;;;20.10;41.00;;;23.68;27.50;101249.66;4880404;29;20512;-75
2021/12/06 05:02:07;;;;;;;2.20;1.88;;;20.10;41.00;;;23.67;27.32;101250.63;4880738;29;20048;-76
2021/12/06 05:04:36;;;;;;;1.73;1.63;;;20.10;41.00;;;23.71;27.49;101261.13;4880693;29;20048;-75
2021/12/06 05:07:16;;;;;;;1.60;1.50;;;20.10;41.00;;;23.70;27.63;101267.41;4865165;29;20048;-75
2021/12/06 05:09:43;;;;;;;2.00;1.70;;;20.10;41.00;;;23.68;27.54;101262.16;4880257;29;20086;-75
2021/12/06 05:12:15;;;;;;;2.00;1.70;;;20.10;41.00;;;23.70;27.77;101262.91;4880486;29;20045;-75
2021/12/06 05:14:41;;;;;;;1.70;1.60;;;20.10;41.00;;;23.73;27.48;101264.53;4897070;29;20056;-76
2021/12/06 05:17:08;;;;;;;1.95;1.60;;;20.10;41.00;;;23.68;27.68;101256.81;4880241;29;20052;-75
2021/12/06 05:19:36;;;;;;;1.75;1.60;;;20.00;41.00;;;23.71;27.51;101259.28;4880267;29;20057;-75
2021/12/06 05:22:05;;;;;;;1.95;1.52;;;20.10;41.50;;;23.68;27.46;101268.34;4880544;29;20052;-75
2021/12/06 05:24:31;;;;;;;2.45;1.83;;;20.10;41.00;;;23.72;27.49;101271.66;4880297;29;20132;-75
2021/12/06 05:26:58;;;;;;;2.00;1.80;;;20.10;41.00;;;23.67;27.29;101266.66;4880240;29;20131;-75
2021/12/06 05:29:28;;;;;;;1.73;1.63;;;20.10;41.00;;;23.70;27.41;101270.91;4880007;29;20052;-75
2021/12/06 05:31:57;;;;;;;1.52;1.40;;;20.10;41.00;;;23.72;27.28;101269.00;4866392;29;20132;-75
2021/12/06 05:34:32;;;;;;;1.83;1.73;;;20.10;41.00;;;23.70;27.42;101268.25;4883141;29;20048;-75
2021/12/06 05:36:59;;;;;;;1.67;1.58;;;20.10;41.00;;;23.70;27.57;101260.22;4883936;29;20053;-75
2021/12/06 05:39:30;;;;;;;1.40;1.30;;;20.10;41.00;;;23.70;27.42;101270.91;4900118;29;20056;-75
2021/12/06 05:42:03;;;;;;;1.60;1.50;;;20.10;41.00;;;23.71;27.63;101285.13;4900232;29;20059;-75
2021/12/06 05:44:29;;;;;;;1.98;1.67;;;20.10;40.90;;;23.73;27.56;101288.56;4883251;29;20076;-75
2021/12/06 05:46:55;;;;;;;1.88;1.60;;;20.10;40.90;;;23.74;27.57;101298.25;4883091;29;20056;-76
2021/12/06 05:49:22;;;;;;;2.05;1.80;;;20.10;40.90;;;23.70;27.52;101294.94;4898929;29;20112;-75
2021/12/06 05:51:48;;;;;;;1.85;1.67;;;20.10;40.90;;;23.70;27.54;101305.63;4883257;29;20083;-75
2021/12/06 05:54:14;;;;;;;1.70;1.60;;;20.10;40.90;;;23.73;27.68;101313.44;4867607;29;20120;-75
2021/12/06 05:56:40;;;;;;;2.08;1.65;;;20.10;40.90;;;23.68;27.46;101305.72;4867461;29;20055;-75
2021/12/06 05:59:06;;;;;;;2.15;1.75;;;20.10;40.90;;;23.72;27.49;101310.84;4882953;29;20059;-75
2021/12/06 06:01:32;;;;;;;1.52;1.42;;;20.10;40.90;;;23.73;27.50;101316.09;4883131;29;20060;-75
2021/12/06 06:04:01;;;;;;;2.38;2.00;;;20.10;40.90;;;23.73;27.44;101317.94;4882975;29;20053;-75
2021/12/06 06:06:33;;;;;;;1.63;1.52;;;20.10;41.00;;;23.72;27.45;101317.03;4867421;29;20045;-75
2021/12/06 06:08:59;;;;;;;1.80;1.70;;;20.10;40.90;;;23.74;27.53;101324.97;4882966;29;20053;-75
2021/12/06 06:11:27;;;;;;;1.90;1.75;;;20.10;41.00;;;23.73;27.27;101328.59;4882904;29;20051;-75
2021/12/06 06:13:53;;;;;;;1.73;1.55;;;20.10;40.90;;;23.70;27.39;101324.31;4882853;29;20059;-75
2021/12/06 06:16:21;;;;;;;2.45;1.55;;;20.10;40.90;;;23.72;27.50;101325.06;4867184;29;20059;-75
2021/12/06 06:18:50;;;;;;;2.15;1.85;;;20.10;41.00;;;23.73;27.42;101324.13;4882781;29;20048;-75
2021/12/06 06:21:18;;;;;;;2.17;1.83;;;20.10;40.90;;;23.75;27.33;101334.69;4882706;29;20060;-75
2021/12/06 06:23:45;;;;;;;1.60;1.50;;;20.10;40.90;;;23.75;27.46;101335.53;4882817;29;20049;-75
2021/12/06 06:26:11;;;;;;;1.65;1.52;;;20.10;40.90;;;23.75;27.49;101343.53;4867258;29;20061;-75
2021/12/06 06:28:37;;;;;;;2.00;1.80;;;20.10;40.90;;;23.74;27.39;101344.53;4882676;29;20057;-76
2021/12/06 06:31:03;;;;;;;1.70;1.60;;;20.10;40.90;;;23.73;27.69;101340.13;4898165;29;20061;-75
2021/12/06 06:33:29;;;;;;;2.08;1.88;;;20.10;40.90;;;23.74;27.52;101344.53;4882894;29;20063;-76
2021/12/06 06:35:55;;;;;;;2.15;1.85;;;20.10;41.50;;;23.75;27.44;101346.22;4882535;29;20105;-75
2021/12/06 06:38:22;;;;;;;1.70;1.60;;;20.10;40.90;;;23.77;27.59;101346.13;4882571;29;20454;-75
2021/12/06 06:40:50;;;;;;;2.20;2.00;;;20.10;40.90;;;23.73;27.56;101345.47;4882527;29;20087;-75
2021/12/06 06:43:17;;;;;;;2.10;1.70;;;20.10;40.90;;;23.76;27.58;101357.78;4899070;29;20055;-75
2021/12/06 06:45:43;;;;;;;1.85;1.67;;;20.10;40.90;;;23.77;27.37;101354.13;4866786;29;20080;-75
2021/12/06 06:48:09;;;;;;;1.85;1.75;;;20.10;40.90;;;23.77;27.54;101360.34;4882260;29;20049;-75
2021/12/06 06:50:35;;;;;;;2.00;1.80;;;20.10;40.80;;;23.76;27.32;101366.63;4882239;29;20394;-76
2021/12/06 06:53:01;;;;;;;2.00;1.80;;;20.20;40.90;;;23.77;27.47;101367.47;4882719;29;20393;-75
2021/12/06 06:55:29;;;;;;;2.38;2.17;;;20.10;40.80;;;23.75;27.58;101367.56;4882745;29;20401;-75
2021/12/06 06:57:56;;;;;;;2.20;1.67;;;20.10;40.70;;;23.73;27.48;101360.66;4882076;29;20554;-75
2021/12/06 07:00:30;;;;;;;1.95;1.80;;;20.20;40.80;;;23.74;27.33;101371.22;4881850;29;20478;-75
2021/12/06 07:02:57;;;;;;;2.67;1.90;;;20.10;40.70;;;23.77;27.44;101364.81;4882196;29;20052;-75
2021/12/06 07:05:26;;;;;;;3.10;1.90;;;20.10;40.70;;;23.78;27.47;101370.06;4882345;29;20491;-75
2021/12/06 07:07:54;;;;;;;2.30;2.10;;;20.10;40.70;;;23.77;27.44;101372.81;4882121;29;20501;-76
2021/12/06 07:10:23;;;;;;;2.20;1.98;;;20.20;40.80;;;23.77;27.58;101367.47;4866422;29;20104;-75
2021/12/06 07:12:53;;;;;;;2.15;1.95;;;20.10;40.80;;;23.76;27.33;101371.13;4881968;29;20060;-75
2021/12/06 07:15:31;;;;;;;2.00;1.80;;;20.10;40.80;;;23.71;27.57;101365.25;4897262;29;20060;-75
2021/12/06 07:18:01;;;;;;;2.88;2.00;;;20.10;40.80;;;23.77;27.51;101381.72;4866350;29;20147;-75
2021/12/06 07:20:30;;;;;;;2.50;2.30;;;20.10;40.80;;;23.75;27.38;101372.91;4881817;29;20501;-75
2021/12/06 07:22:56;;;;;;;2.08;1.85;;;20.10;40.80;;;23.76;27.51;101376.47;4866746;29;20056;-75
2021/12/06 07:25:24;;;;;;;2.25;1.88;;;20.10;40.80;;;23.78;27.44;101375.41;4881721;29;20131;-75
2021/12/06 07:27:52;;;;;;;1.73;1.60;;;20.10;40.80;;;23.76;27.32;101363.13;4866108;29;20048;-75
2021/12/06 07:30:21;;;;;;;2.28;1.95;;;20.10;40.80;;;23.73;27.51;101357.97;4881811;29;20144;-75
2021/12/06 07:32:48;;;;;;;1.75;1.63;;;20.10;40.80;;;23.79;27.32;101368.22;4881638;29;20053;-75
2021/12/06 07:35:15;;;;;;;1.88;1.77;;;20.10;40.80;;;23.73;27.43;101356.16;4881404;29;20049;-75
2021/12/06 07:37:41;;;;;;;2.20;2.00;;;20.10;40.90;;;23.77;27.41;101362.13;4865912;29;20071;-75
2021/12/06 07:40:10;;;;;;;2.22;2.03;;;20.10;40.80;;;23.74;27.43;101357.88;4865799;29;20075;-75
2021/12/06 07:42:36;;;;;;;2.10;1.90;;;20.20;40.90;;;23.77;27.41;101368.34;4879807;29;20059;-75
2021/12/06 07:45:05;;;;;;;1.95;1.80;;;20.10;40.90;;;23.78;27.34;101366.53;4881122;29;20064;-75
2021/12/06 07:47:31;;;;;;;2.13;1.80;;;20.10;40.80;;;23.75;27.34;101367.56;4881133;29;20494;-75
2021/12/06 07:49:57;;;;;;;2.58;1.90;;;20.10;41.10;;;23.80;27.46;101380.63;4881048;29;20060;-75
2021/12/06 07:52:22;;;;;;;2.58;2.38;;;20.10;40.80;;;23.76;27.25;101358.63;4881416;29;20107;-75
2021/12/06 07:54:48;;;;;;;2.45;1.88;;;20.10;40.80;;;23.78;27.41;101366.53;4880710;29;20087;-75
2021/12/06 07:57:14;;;;;;;1.98;1.80;;;20.10;40.80;;;23.78;27.42;101361.19;4881360;29;20048;-75
2021/12/06 07:59:40;;;;;;;2.47;2.17;;;20.10;40.80;;;23.78;27.31;101355.84;4880825;29;20056;-75
2021/12/06 08:02:08;;;;;;;2.03;1.83;;;20.10;40.80;;;23.81;27.35;101371.69;4864048;29;20055;-75
2021/12/06 08:04:34;;;;;;;2.00;1.80;;;20.10;40.80;;;23.81;27.34;101369.00;4865760;29;20052;-75
2021/12/06 08:07:00;;;;;;;2.30;1.98;;;20.10;40.80;;;23.79;27.36;101369.09;4865578;29;20053;-75
2021/12/06 08:09:27;;;;;;;2.15;1.92;;;20.20;40.90;;;23.80;27.43;101365.47;4897580;29;20064;-75
2021/12/06 08:11:53;;;;;;;2.53;2.20;;;20.20;40.80;;;23.80;27.44;101364.63;4865750;29;20128;-75
2021/12/06 08:14:19;;;;;;;2.47;2.15;;;20.20;40.80;;;23.77;27.30;101357.69;4881137;29;20140;-75
2021/12/06 08:16:45;;;;;;;2.35;2.10;;;20.20;40.90;;;23.80;27.47;101367.28;4881081;29;20079;-75
2021/12/06 08:19:12;;;;;;;2.63;1.85;;;20.20;40.80;;;23.81;27.37;101380.53;4880761;29;20486;-75
2021/12/06 08:21:39;;;;;;;2.28;1.88;;;20.20;40.80;;;23.83;27.50;101377.81;4880971;29;20401;-75
2021/12/06 08:24:06;;;;;;;2.20;1.98;;;20.20;40.80;;;23.80;27.64;101368.13;4865446;29;20512;-75
2021/12/06 08:26:39;;;;;;;2.33;2.13;;;20.20;40.80;;;23.78;27.38;101370.06;4880948;29;20053;-75
2021/12/06 08:29:07;;;;;;;2.58;2.05;;;20.20;40.80;;;23.84;27.30;101369.69;4865070;29;20520;-75
2021/12/06 08:31:37;;;;;;;2.10;1.90;;;20.20;40.70;;;23.83;27.39;101365.28;4880648;29;20079;-75
2021/12/06 08:34:04;;;;;;;2.05;1.70;;;20.20;40.70;;;23.83;27.51;101375.97;4880763;29;20092;-75
2021/12/06 08:36:30;;;;;;;2.35;1.95;;;20.30;40.80;;;23.79;27.47;101370.91;4880621;29;20052;-75
2021/12/06 08:38:55;;;;;;;1.85;1.65;;;20.20;40.70;;;23.85;27.45;101381.22;4880604;29;20531;-75
2021/12/06 08:41:27;;;;;;;3.58;2.58;;;20.20;40.70;;;23.83;27.22;101369.78;4865092;29;20048;-75
2021/12/06 08:43:54;;;;;;;;;;;20.20;40.70;;;23.95;27.24;101360.94;4881297;29;20057;-75
2021/12/06 08:46:27;;;;;;;2.00;1.80;;;20.20;40.70;;;23.91;27.33;101351.44;4880640;29;19920;-75
2021/12/06 08:48:54;;;;;;;2.83;2.10;;;20.20;40.70;;;23.89;27.18;101348.03;4880461;29;20049;-75
2021/12/06 08:51:55;;;;;;;2.50;1.95;;;20.20;40.70;;;23.90;27.38;101343.53;4880466;29;20077;-76
2021/12/06 08:54:26;;;;;;;2.60;2.13;;;20.30;40.70;;;23.90;27.27;101347.03;4866172;29;20052;-75
2021/12/06 08:56:54;;;;;;;;;;;20.30;40.70;;;24.00;27.12;101334.78;4881269;29;20084;-75
2021/12/06 08:59:20;;;;;;;1.83;1.63;;;20.30;40.70;;;23.94;27.20;101326.31;4880967;29;19955;-75
2021/12/06 09:01:47;;;;;;;2.20;1.70;;;20.30;40.60;;;23.90;27.09;101331.03;4862882;29;20055;-75
2021/12/06 09:04:13;;;;;;;1.95;1.80;;;20.30;40.60;;;23.90;27.22;101335.53;4880162;29;20544;-76
2021/12/06 09:06:45;;;;;;;2.60;1.88;;;20.30;40.60;;;23.92;27.29;101341.59;4883517;29;20059;-75
2021/12/06 09:09:12;;;;;;;2.28;1.70;;;20.30;40.60;;;23.90;27.19;101339.03;4883620;29;20104;-75
2021/12/06 09:11:42;;;;;;;2.10;1.90;;;20.30;40.50;;;23.91;27.30;101334.56;4883724;29;20100;-75
2021/12/06 09:14:08;;;;;;;2.00;1.80;;;20.40;40.60;;;23.90;27.37;101336.38;4883593;29;20052;-75
2021/12/06 09:16:36;;;;;;;2.28;1.98;;;20.30;40.50;;;23.88;27.29;101332.94;4883695;29;20052;-75
2021/12/06 09:19:05;;;;;;;2.40;2.20;;;20.30;40.50;;;23.88;27.30;101332.94;4883359;29;20095;-76
2021/12/06 09:21:32;;;;;;;2.85;2.22;;;20.30;40.50;;;23.90;27.21;101339.03;4867960;29;20131;-75
2021/12/06 09:24:00;;;;;;;2.03;1.80;;;20.30;40.60;;;23.94;27.12;101353.91;4883370;29;20053;-75
2021/12/06 09:26:30;;;;;;;2.30;2.10;;;20.30;40.50;;;23.94;27.26;101351.25;4883880;29;20056;-75
2021/12/06 09:28:57;;;;;;;3.03;1.83;;;20.40;40.60;;;23.94;27.13;101348.56;4883800;29;20477;-75
2021/12/06 09:31:23;;;;;;;2.30;1.90;;;20.40;40.60;;;23.96;27.52;101368.00;4883656;29;20100;-75
2021/12/06 09:33:49;;;;;;;2.30;2.10;;;20.30;40.50;;;23.94;27.26;101359.25;4867793;29;20105;-76
2021/12/06 09:36:18;;;;;;;2.58;1.80;;;20.40;40.60;;;23.95;27.22;101352.09;4883276;29;20049;-75
2021/12/06 09:38:44;;;;;;;1.90;1.60;;;20.30;40.50;;;23.96;27.34;101359.16;4883502;29;20044;-75
2021/12/06 09:41:22;;;;;;;2.53;2.00;;;20.40;40.50;;;23.93;27.32;101354.84;4883377;29;20112;-75
2021/12/06 09:43:50;;;;;;;2.20;1.88;;;20.40;40.50;;;23.96;27.27;101361.81;4900010;29;20040;-75
2021/12/06 09:46:18;;;;;;;2.03;1.70;;;20.40;40.50;;;23.96;27.31;101353.81;4883038;29;20049;-75
2021/12/06 09:48:47;;;;;;;2.33;1.77;;;20.40;40.50;;;23.97;27.36;101359.06;4883049;29;20067;-75
2021/12/06 09:51:26;;;;;;;2.60;2.25;;;20.40;41.00;;;23.96;27.45;101368.00;4867850;29;20108;-75
2021/12/06 09:53:55;;;;;;;2.08;1.85;;;20.40;40.50;;;23.97;27.23;101359.06;4883007;29;20053;-75
2021/12/06 09:56:28;;;;;;;2.33;1.70;;;20.40;40.50;;;23.94;27.13;101353.03;4883033;29;20127;-75
2021/12/06 09:58:55;;;;;;;2.40;2.05;;;20.40;40.40;;;24.00;26.91;101363.31;4867462;29;20048;-75
2021/12/06 10:01:30;;;;;;;2.50;2.05;;;20.40;40.40;;;23.99;27.13;101361.59;4898470;29;20052;-75
2021/12/06 10:03:59;;;;;;;2.00;1.85;;;20.40;40.40;;;23.98;27.30;101363.41;4883045;29;20143;-75
2021/12/06 10:06:28;;;;;;;2.95;2.28;;;20.40;40.40;;;23.98;27.10;101366.09;4867019;29;20049;-75
2021/12/06 10:08:55;;;;;;;3.03;2.50;;;20.40;40.40;;;23.99;27.07;101369.59;4882729;29;20515;-75
2021/12/06 10:11:24;;;;;;;2.28;2.05;;;20.40;40.30;;;23.99;27.09;101367.81;4882707;29;20160;-76
2021/12/06 10:13:51;;;;;;;2.42;2.00;;;20.40;40.40;;;24.03;27.04;101366.63;4863067;29;20048;-76
2021/12/06 10:16:19;;;;;;;2.05;1.85;;;20.40;40.30;;;24.00;27.11;101377.53;4881796;29;20061;-76
2021/12/06 10:18:46;;;;;;;2.75;2.05;;;20.40;40.30;;;24.05;27.20;101379.88;4866552;29;20044;-76
2021/12/06 10:21:13;;;;;;;2.28;2.08;;;20.40;40.30;;;24.05;27.12;101370.06;4881792;29;20049;-76
2021/12/06 10:23:41;;;;;;;2.55;2.10;;;20.40;40.30;;;24.03;26.90;101368.47;4881960;29;20088;-76
2021/12/06 10:26:13;;;;;;;2.53;1.98;;;20.50;40.30;;;24.04;27.17;101368.38;4882197;29;20045;-76
2021/12/06 10:28:43;;;;;;;2.10;1.90;;;20.50;40.30;;;24.02;26.94;101369.41;4881955;29;20060;-76
2021/12/06 10:31:12;;;;;;;4.20;2.22;;;20.40;40.20;;;24.04;27.02;101375.53;4866517;29;20064;-76